Forestal Pacifico — HPLG — position and weather

sailwx.info

Track history (hours):
 
Tides and Currents Weather Stations Pressure Air Temp Water Temp Dewpoint Dewpoint Depression Visibility Wind Speed Wind Dir Waves Ship Positions

Forestal Pacifico

Last reported at 2017-Aug-27 14:27 UTC. Time now 2017-Sep-26 18:36 UTC.
Position S 27°24' E 153°58'.
Warning: this ship's position is 30 days out of date.

Length 199.9 m; beam 32.2 m.

Type: Cargo ship. MMSI: 354373000.

Date/timePositionNaut miles runAvg speedWind from/ knotsBaromVisibWave heightAir tempDewpointWater temp
2017-Aug-27 14:27S 27°24' E 153°58'612.4
2017-Aug-27 14:00S 27°30' E 153°57'612.3
2017-Aug-27 13:30S 27°36' E 153°56'712.1
2017-Aug-27 12:56S 27°43' E 153°56'512.0
2017-Aug-27 12:30S 27°48' E 153°55'612.0
2017-Aug-27 12:00S 27°54' E 153°55'611.9
2017-Aug-27 11:30S 27°60' E 153°54'811.8
2017-Aug-27 10:50S 28°08' E 153°54'411.4
2017-Aug-27 10:30S 28°11' E 153°53'611.5
2017-Aug-27 10:00S 28°17' E 153°52'611.6
2017-Aug-27 09:29S 28°23' E 153°52'611.5
2017-Aug-27 08:59S 28°29' E 153°52'611.6
2017-Aug-27 08:29S 28°35' E 153°51'24112.5
2017-Aug-26 13:15S 32°30' E 152°50'312.6
2017-Aug-26 13:00S 32°33' E 152°49'713.3
2017-Aug-26 12:30S 32°38' E 152°45'713.8
2017-Aug-26 12:00S 32°44' E 152°41'713.8
2017-Aug-26 11:30S 32°51' E 152°39'713.8
2017-Aug-26 11:00S 32°58' E 152°36'714.0
2017-Aug-26 10:30S 33°04' E 152°33'49613.2
2017-Aug-24 20:58S 40°02' E 146°59'714.3
2017-Aug-24 20:30S 40°08' E 146°57'714.4
2017-Aug-24 20:00S 40°15' E 146°56'714.4
2017-Aug-24 19:30S 40°22' E 146°54'714.3
2017-Aug-24 19:00S 40°29' E 146°52'714.2
2017-Aug-24 18:30S 40°36' E 146°50'714.2
2017-Aug-24 18:00S 40°43' E 146°48'714.2
2017-Aug-24 17:30S 40°50' E 146°46'713.8
2017-Aug-24 17:00S 40°57' E 146°45'612.0
2017-Aug-24 16:31S 41°03' E 146°46'5 9.8
2017-Aug-24 16:00S 41°07' E 146°49'4 8.3
2017-Aug-24 15:31S 41°09' E 146°54'2 3.6
2017-Aug-24 15:00S 41°10' E 146°56'0 0.0
2017-Aug-24 14:30S 41°10' E 146°56'0 0.0
2017-Aug-24 13:57S 41°10' E 146°56'0 0.0
2017-Aug-24 13:27S 41°10' E 146°56'0 0.0
2017-Aug-24 12:57S 41°10' E 146°56'0 0.0
2017-Aug-24 12:27S 41°10' E 146°56'0 0.0
2017-Aug-24 12:00S 41°10' E 146°56'0 0.0
2017-Aug-24 11:27S 41°10' E 146°56'  
2017-Aug-17 20:13S 33°11' E 152°30'313.1
2017-Aug-17 20:00S 33°08' E 152°31'713.5
2017-Aug-17 19:30S 33°02' E 152°33'713.3
2017-Aug-17 19:00S 32°55' E 152°36'712.7
2017-Aug-17 18:30S 32°49' E 152°39'612.3
2017-Aug-17 18:00S 32°44' E 152°43'612.6
2017-Aug-17 17:30S 32°38' E 152°46'713.0
2017-Aug-17 17:00S 32°33' E 152°49'813.8
2017-Aug-17 16:26S 32°25' E 152°52'  
Track history (hours):
 
Tides and Currents Weather Stations Pressure Air Temp Water Temp Dewpoint Dewpoint Depression Visibility Wind Speed Wind Dir Waves Ship Positions

Forestal Pacifico

Last reported at 2017-Aug-27 14:27 UTC. Time now 2017-Sep-26 18:36 UTC.
Position S 27°24' E 153°58'.
Warning: this ship's position is 30 days out of date.

Length 199.9 m; beam 32.2 m.

Type: Cargo ship. MMSI: 354373000.

Date/timePositionNaut miles runAvg speedWind from/ knotsBaromVisibWave heightAir tempDewpointWater temp
2017-Aug-27 14:27S 27°24' E 153°58'612.4
2017-Aug-27 14:00S 27°30' E 153°57'612.3
2017-Aug-27 13:30S 27°36' E 153°56'712.1
2017-Aug-27 12:56S 27°43' E 153°56'512.0
2017-Aug-27 12:30S 27°48' E 153°55'612.0
2017-Aug-27 12:00S 27°54' E 153°55'611.9
2017-Aug-27 11:30S 27°60' E 153°54'811.8
2017-Aug-27 10:50S 28°08' E 153°54'411.4
2017-Aug-27 10:30S 28°11' E 153°53'611.5
2017-Aug-27 10:00S 28°17' E 153°52'611.6
2017-Aug-27 09:29S 28°23' E 153°52'611.5
2017-Aug-27 08:59S 28°29' E 153°52'611.6
2017-Aug-27 08:29S 28°35' E 153°51'24112.5
2017-Aug-26 13:15S 32°30' E 152°50'312.6
2017-Aug-26 13:00S 32°33' E 152°49'713.3
2017-Aug-26 12:30S 32°38' E 152°45'713.8
2017-Aug-26 12:00S 32°44' E 152°41'713.8
2017-Aug-26 11:30S 32°51' E 152°39'713.8
2017-Aug-26 11:00S 32°58' E 152°36'714.0
2017-Aug-26 10:30S 33°04' E 152°33'49613.2
2017-Aug-24 20:58S 40°02' E 146°59'714.3
2017-Aug-24 20:30S 40°08' E 146°57'714.4
2017-Aug-24 20:00S 40°15' E 146°56'714.4
2017-Aug-24 19:30S 40°22' E 146°54'714.3
2017-Aug-24 19:00S 40°29' E 146°52'714.2
2017-Aug-24 18:30S 40°36' E 146°50'714.2
2017-Aug-24 18:00S 40°43' E 146°48'714.2
2017-Aug-24 17:30S 40°50' E 146°46'713.8
2017-Aug-24 17:00S 40°57' E 146°45'612.0
2017-Aug-24 16:31S 41°03' E 146°46'5 9.8
2017-Aug-24 16:00S 41°07' E 146°49'4 8.3
2017-Aug-24 15:31S 41°09' E 146°54'2 3.6
2017-Aug-24 15:00S 41°10' E 146°56'0 0.0
2017-Aug-24 14:30S 41°10' E 146°56'0 0.0
2017-Aug-24 13:57S 41°10' E 146°56'0 0.0
2017-Aug-24 13:27S 41°10' E 146°56'0 0.0
2017-Aug-24 12:57S 41°10' E 146°56'0 0.0
2017-Aug-24 12:27S 41°10' E 146°56'0 0.0
2017-Aug-24 12:00S 41°10' E 146°56'0 0.0
2017-Aug-24 11:27S 41°10' E 146°56'  
2017-Aug-17 20:13S 33°11' E 152°30'313.1
2017-Aug-17 20:00S 33°08' E 152°31'713.5
2017-Aug-17 19:30S 33°02' E 152°33'713.3
2017-Aug-17 19:00S 32°55' E 152°36'712.7
2017-Aug-17 18:30S 32°49' E 152°39'612.3
2017-Aug-17 18:00S 32°44' E 152°43'612.6
2017-Aug-17 17:30S 32°38' E 152°46'713.0
2017-Aug-17 17:00S 32°33' E 152°49'813.8
2017-Aug-17 16:26S 32°25' E 152°52'  

Dump ship's entire track history